Time;durP1;ratioP1;P1;durP2;ratioP2;P2;SDS_P1;SDS_P2;PMS_P1;PMS_P2;Temp;Humidity;BMP_temperature;BMP_pressure;BME280_temperature;BME280_humidity;BME280_pressure;Samples;Min_cycle;Max_cycle;Signal;HPM_P1;HPM_P2
2024/03/26 00:01:28;;;;;;;6.68;2.60;;;;;;;;;;6165665;28;20507;-84
2024/03/26 00:04:29;;;;;;;7.30;2.60;;;;;;;;;;6182998;28;20068;-85
2024/03/26 00:07:30;;;;;;;5.93;2.90;;;;;;;;;;6152864;28;20550;-85
2024/03/26 00:10:31;;;;;;;4.43;2.45;;;;;;;;;;6147472;28;20086;-85
2024/03/26 00:13:32;;;;;;;6.55;3.45;;;;;;;;;;6159986;28;20074;-85
2024/03/26 00:16:32;;;;;;;7.28;2.80;;;;;;;;;;6169466;28;20053;-85
2024/03/26 00:19:33;;;;;;;6.43;2.60;;;;;;;;;;6163171;28;20046;-85
2024/03/26 00:22:34;;;;;;;5.50;2.85;;;;;;;;;;6167539;28;20122;-85
2024/03/26 00:25:34;;;;;;;6.65;2.63;;;;;;;;;;6166063;28;20124;-85
2024/03/26 00:28:35;;;;;;;5.55;2.83;;;;;;;;;;6188408;28;20530;-84
2024/03/26 00:31:36;;;;;;;6.63;2.60;;;;;;;;;;6170680;28;20136;-84
2024/03/26 00:34:36;;;;;;;7.75;2.53;;;;;;;;;;6168286;28;20053;-84
2024/03/26 00:37:37;;;;;;;4.82;2.38;;;;;;;;;;6182486;28;20042;-84
2024/03/26 00:40:38;;;;;;;8.10;2.80;;;;;;;;;;6165667;28;20154;-84
2024/03/26 00:43:39;;;;;;;5.30;2.85;;;;;;;;;;6168687;28;20500;-85
2024/03/26 00:46:39;;;;;;;7.38;2.35;;;;;;;;;;6147979;28;20046;-85
2024/03/26 00:49:40;;;;;;;5.65;2.42;;;;;;;;;;6171358;28;20064;-84
2024/03/26 00:52:41;;;;;;;5.88;2.45;;;;;;;;;;6182451;28;20042;-84
2024/03/26 00:55:41;;;;;;;4.68;1.80;;;;;;;;;;6170609;28;20587;-85
2024/03/26 00:58:42;;;;;;;6.90;2.40;;;;;;;;;;6187442;28;20125;-84
2024/03/26 01:01:43;;;;;;;5.20;2.30;;;;;;;;;;6206850;28;20103;-84
2024/03/26 01:04:43;;;;;;;6.32;2.50;;;;;;;;;;6188496;28;20042;-84
2024/03/26 01:07:44;;;;;;;5.07;2.20;;;;;;;;;;6169838;28;20515;-85
2024/03/26 01:10:46;;;;;;;8.35;2.40;;;;;;;;;;6172354;28;20515;-84
2024/03/26 01:13:47;;;;;;;5.85;2.17;;;;;;;;;;6154271;28;20064;-85
2024/03/26 01:16:47;;;;;;;5.80;2.55;;;;;;;;;;6168022;28;20042;-84
2024/03/26 01:19:48;;;;;;;3.83;2.25;;;;;;;;;;6156724;28;20043;-84
2024/03/26 01:22:49;;;;;;;3.85;2.17;;;;;;;;;;6168750;28;20555;-85
2024/03/26 01:25:50;;;;;;;4.97;2.22;;;;;;;;;;6149595;28;20046;-85
2024/03/26 01:28:50;;;;;;;3.63;2.30;;;;;;;;;;6163535;28;20546;-85
2024/03/26 01:31:51;;;;;;;5.00;2.45;;;;;;;;;;6171739;28;20519;-85
2024/03/26 01:34:52;;;;;;;6.03;2.42;;;;;;;;;;6164052;28;20157;-84
2024/03/26 01:37:53;;;;;;;7.15;2.20;;;;;;;;;;6184029;28;20054;-85
2024/03/26 01:40:54;;;;;;;3.30;1.95;;;;;;;;;;6144065;28;20054;-85
2024/03/26 01:43:54;;;;;;;5.65;2.75;;;;;;;;;;6166533;28;20050;-84
2024/03/26 01:46:55;;;;;;;6.15;2.53;;;;;;;;;;6163023;28;20057;-85
2024/03/26 01:49:58;;;;;;;5.00;2.60;;;;;;;;;;6181043;28;20495;-84
2024/03/26 01:52:59;;;;;;;5.60;2.50;;;;;;;;;;6170678;28;20061;-84
2024/03/26 01:56:00;;;;;;;4.85;1.88;;;;;;;;;;6173867;28;20049;-85
2024/03/26 01:59:01;;;;;;;3.90;2.05;;;;;;;;;;6167667;28;20407;-86
2024/03/26 02:02:02;;;;;;;5.53;2.53;;;;;;;;;;6150994;28;20049;-84
2024/03/26 02:05:03;;;;;;;5.80;2.70;;;;;;;;;;6147841;28;20042;-85
2024/03/26 02:08:04;;;;;;;5.25;2.42;;;;;;;;;;6183919;28;20423;-85
2024/03/26 02:11:05;;;;;;;4.38;2.55;;;;;;;;;;6149147;28;20042;-84
2024/03/26 02:14:05;;;;;;;5.28;2.47;;;;;;;;;;6169156;28;20057;-84
2024/03/26 02:17:06;;;;;;;6.15;2.28;;;;;;;;;;6167558;28;20046;-85
2024/03/26 02:20:09;;;;;;;4.75;2.10;;;;;;;;;;6148963;28;20495;-84
2024/03/26 02:23:09;;;;;;;3.63;2.10;;;;;;;;;;6147069;28;20046;-84
2024/03/26 02:26:18;;;;;;;4.60;1.70;;;;;;;;;;6166373;28;20555;-85
2024/03/26 02:29:18;;;;;;;4.03;1.90;;;;;;;;;;6164547;28;20487;-85
2024/03/26 02:32:19;;;;;;;6.07;2.20;;;;;;;;;;6161446;28;20065;-84
2024/03/26 02:35:20;;;;;;;6.15;2.13;;;;;;;;;;6172165;28;20117;-84
2024/03/26 02:38:20;;;;;;;5.35;1.77;;;;;;;;;;6146489;28;20141;-85
2024/03/26 02:41:21;;;;;;;2.83;2.00;;;;;;;;;;6165261;28;20050;-85
2024/03/26 02:44:22;;;;;;;6.93;2.30;;;;;;;;;;6146397;28;20087;-84
2024/03/26 02:47:23;;;;;;;3.30;2.03;;;;;;;;;;6150361;28;20066;-84
2024/03/26 02:50:23;;;;;;;4.65;1.90;;;;;;;;;;6163511;28;20121;-84
2024/03/26 02:53:24;;;;;;;7.28;2.30;;;;;;;;;;6172541;28;20125;-85
2024/03/26 02:56:25;;;;;;;4.72;2.10;;;;;;;;;;6164980;28;20111;-87
2024/03/26 02:59:25;;;;;;;6.18;2.33;;;;;;;;;;6146849;28;20077;-87
2024/03/26 03:02:26;;;;;;;5.43;2.35;;;;;;;;;;6166842;28;20046;-86
2024/03/26 03:05:27;;;;;;;5.15;2.40;;;;;;;;;;6174121;28;20040;-87
2024/03/26 03:08:28;;;;;;;6.13;2.03;;;;;;;;;;6154087;28;20047;-86
2024/03/26 03:11:28;;;;;;;3.92;1.92;;;;;;;;;;6176976;28;20046;-85
2024/03/26 03:14:30;;;;;;;3.60;2.22;;;;;;;;;;6151218;28;20086;-87
2024/03/26 03:17:30;;;;;;;5.70;2.30;;;;;;;;;;6157838;28;20056;-85
2024/03/26 03:20:31;;;;;;;7.95;2.28;;;;;;;;;;6156839;28;20046;-86
2024/03/26 03:23:32;;;;;;;4.00;2.15;;;;;;;;;;6190179;28;20180;-85
2024/03/26 03:26:32;;;;;;;6.40;2.42;;;;;;;;;;6173328;28;20093;-85
2024/03/26 03:29:33;;;;;;;4.30;2.20;;;;;;;;;;6170842;28;20058;-86
2024/03/26 03:32:34;;;;;;;5.82;2.10;;;;;;;;;;6153786;28;20145;-86
2024/03/26 03:35:38;;;;;;;4.10;2.47;;;;;;;;;;6184617;28;20070;-86
2024/03/26 03:38:39;;;;;;;5.93;2.50;;;;;;;;;;6163254;28;20042;-86
2024/03/26 03:41:39;;;;;;;6.22;2.75;;;;;;;;;;6145330;28;20861;-85
2024/03/26 03:44:40;;;;;;;6.70;2.78;;;;;;;;;;6148978;28;20047;-86
2024/03/26 03:47:41;;;;;;;8.88;2.80;;;;;;;;;;6207935;28;20060;-86
2024/03/26 03:50:41;;;;;;;5.10;2.10;;;;;;;;;;6193111;28;20030;-86
2024/03/26 03:53:42;;;;;;;7.00;2.58;;;;;;;;;;6165728;28;20073;-86
2024/03/26 03:56:43;;;;;;;4.70;2.92;;;;;;;;;;6176159;28;20097;-85
2024/03/26 03:59:43;;;;;;;7.10;3.25;;;;;;;;;;6185109;28;20120;-86
2024/03/26 04:02:44;;;;;;;6.63;3.00;;;;;;;;;;6155689;28;20046;-86
2024/03/26 04:05:45;;;;;;;5.53;2.85;;;;;;;;;;6174776;28;20046;-86
2024/03/26 04:08:46;;;;;;;12.00;6.05;;;;;;;;;;6180091;28;20047;-86
2024/03/26 04:11:47;;;;;;;35.85;14.77;;;;;;;;;;6165119;28;20053;-86
2024/03/26 04:14:47;;;;;;;14.60;7.57;;;;;;;;;;6161420;28;20057;-86
2024/03/26 04:17:52;;;;;;;7.25;3.22;;;;;;;;;;6148642;28;20053;-85
2024/03/26 04:20:52;;;;;;;4.80;2.33;;;;;;;;;;6177720;28;20057;-85
2024/03/26 04:23:53;;;;;;;4.88;2.65;;;;;;;;;;6179286;28;20050;-86
2024/03/26 04:26:54;;;;;;;4.75;2.80;;;;;;;;;;6174164;28;20069;-85
2024/03/26 04:29:55;;;;;;;6.93;3.20;;;;;;;;;;6188710;28;20774;-84
2024/03/26 04:32:55;;;;;;;7.00;3.08;;;;;;;;;;6166015;28;20050;-84
2024/03/26 04:35:56;;;;;;;4.82;2.47;;;;;;;;;;6166281;28;20065;-84
2024/03/26 04:38:57;;;;;;;8.75;3.45;;;;;;;;;;6167813;28;20054;-85
2024/03/26 04:41:57;;;;;;;7.28;2.58;;;;;;;;;;6167060;28;20058;-84
2024/03/26 04:44:58;;;;;;;4.40;2.65;;;;;;;;;;6166646;28;20073;-84
2024/03/26 04:47:59;;;;;;;6.72;2.85;;;;;;;;;;6151009;28;20038;-84
2024/03/26 04:51:00;;;;;;;6.40;2.63;;;;;;;;;;6168799;28;20450;-85
2024/03/26 04:54:01;;;;;;;5.28;2.70;;;;;;;;;;6179532;28;20042;-84
2024/03/26 04:57:02;;;;;;;9.45;4.35;;;;;;;;;;6157209;28;20050;-85
2024/03/26 05:00:03;;;;;;;6.05;3.22;;;;;;;;;;6168925;28;20042;-84
2024/03/26 05:03:04;;;;;;;8.02;2.90;;;;;;;;;;6167648;28;20077;-85
2024/03/26 05:06:05;;;;;;;4.78;2.72;;;;;;;;;;6147723;28;20046;-84
2024/03/26 05:09:06;;;;;;;4.78;2.40;;;;;;;;;;6166920;28;20056;-84
2024/03/26 05:12:06;;;;;;;5.95;2.90;;;;;;;;;;6185182;28;20411;-84
2024/03/26 05:15:07;;;;;;;6.28;2.83;;;;;;;;;;6185959;28;20062;-84
2024/03/26 05:18:08;;;;;;;5.28;2.58;;;;;;;;;;6153934;28;20150;-84
2024/03/26 05:21:09;;;;;;;9.10;3.10;;;;;;;;;;6156854;28;20141;-85
2024/03/26 05:24:09;;;;;;;6.47;2.97;;;;;;;;;;6184129;28;20164;-84
2024/03/26 05:27:10;;;;;;;7.13;2.50;;;;;;;;;;6171659;28;20042;-84
2024/03/26 05:30:11;;;;;;;5.57;2.50;;;;;;;;;;6190310;28;20030;-84
2024/03/26 05:33:12;;;;;;;7.95;3.03;;;;;;;;;;6189862;28;20050;-84
2024/03/26 05:36:16;;;;;;;4.70;2.75;;;;;;;;;;6170379;28;20534;-85
2024/03/26 05:39:17;;;;;;;8.95;3.70;;;;;;;;;;6182543;28;20046;-84
2024/03/26 05:42:17;;;;;;;8.13;3.90;;;;;;;;;;6174920;28;20053;-85
2024/03/26 05:45:18;;;;;;;7.53;3.50;;;;;;;;;;6169371;28;20049;-85
2024/03/26 05:48:20;;;;;;;5.32;2.78;;;;;;;;;;6163610;28;20045;-84
2024/03/26 05:51:20;;;;;;;5.97;3.22;;;;;;;;;;6175590;28;20057;-84
2024/03/26 05:54:21;;;;;;;5.72;2.90;;;;;;;;;;6161573;28;20045;-85
2024/03/26 05:57:22;;;;;;;5.65;2.60;;;;;;;;;;6169049;28;20097;-85
2024/03/26 06:00:22;;;;;;;7.47;3.28;;;;;;;;;;6167952;28;20046;-83
2024/03/26 06:03:23;;;;;;;5.78;2.88;;;;;;;;;;6171479;28;20050;-85
2024/03/26 06:06:24;;;;;;;5.65;2.67;;;;;;;;;;6185417;28;20061;-84
2024/03/26 06:09:25;;;;;;;7.97;2.90;;;;;;;;;;6163458;28;20046;-85
2024/03/26 06:12:26;;;;;;;8.10;3.08;;;;;;;;;;6168259;28;20050;-84
2024/03/26 06:15:26;;;;;;;7.45;3.13;;;;;;;;;;6160576;28;20038;-83
2024/03/26 06:18:27;;;;;;;7.07;2.65;;;;;;;;;;6166568;28;20046;-85
2024/03/26 06:21:28;;;;;;;6.10;3.38;;;;;;;;;;6154581;28;20447;-84
2024/03/26 06:24:28;;;;;;;8.15;3.22;;;;;;;;;;6165769;28;20110;-84
2024/03/26 06:27:29;;;;;;;4.20;2.72;;;;;;;;;;6156859;28;20042;-85
2024/03/26 06:30:30;;;;;;;5.72;2.45;;;;;;;;;;6165522;28;20062;-84
2024/03/26 06:33:30;;;;;;;4.80;2.20;;;;;;;;;;6150365;28;20054;-84
2024/03/26 06:36:31;;;;;;;6.53;2.72;;;;;;;;;;6210390;28;20038;-85
2024/03/26 06:39:32;;;;;;;5.75;2.60;;;;;;;;;;6199076;28;20105;-85
2024/03/26 06:42:33;;;;;;;8.13;3.28;;;;;;;;;;6174390;28;20056;-85
2024/03/26 06:45:33;;;;;;;8.52;2.58;;;;;;;;;;6194169;28;20050;-84
2024/03/26 06:48:34;;;;;;;6.53;2.65;;;;;;;;;;6190980;28;20128;-85
2024/03/26 06:51:35;;;;;;;9.77;2.95;;;;;;;;;;6177015;28;20050;-84
2024/03/26 06:54:35;;;;;;;5.75;2.78;;;;;;;;;;6157931;28;20116;-84
2024/03/26 06:57:36;;;;;;;5.80;2.55;;;;;;;;;;6158150;28;20049;-85
2024/03/26 07:00:37;;;;;;;4.32;2.35;;;;;;;;;;6171058;28;20046;-85
2024/03/26 07:03:38;;;;;;;4.07;2.30;;;;;;;;;;6171133;28;20050;-86
2024/03/26 07:06:39;;;;;;;5.93;2.50;;;;;;;;;;6146635;28;20046;-86
2024/03/26 07:09:39;;;;;;;4.32;2.25;;;;;;;;;;6182647;28;20073;-85
2024/03/26 07:12:40;;;;;;;5.22;2.47;;;;;;;;;;6153596;28;20560;-86
2024/03/26 07:15:41;;;;;;;5.35;2.28;;;;;;;;;;6178761;28;20121;-86
2024/03/26 07:18:42;;;;;;;3.72;2.25;;;;;;;;;;6170618;28;20043;-86
2024/03/26 07:21:43;;;;;;;4.97;2.70;;;;;;;;;;6174939;28;20046;-85
2024/03/26 07:24:43;;;;;;;4.20;2.60;;;;;;;;;;6179029;28;20062;-86
2024/03/26 07:27:44;;;;;;;4.90;2.75;;;;;;;;;;6186423;28;20154;-86
2024/03/26 07:30:46;;;;;;;6.75;3.10;;;;;;;;;;6143384;28;20610;-85
2024/03/26 07:33:46;;;;;;;9.95;5.10;;;;;;;;;;6188518;28;20526;-86
2024/03/26 07:36:47;;;;;;;4.05;2.70;;;;;;;;;;6185132;28;20038;-85
2024/03/26 07:39:48;;;;;;;5.63;2.60;;;;;;;;;;6172141;28;20117;-85
2024/03/26 07:42:48;;;;;;;19.63;11.55;;;;;;;;;;6180020;28;20411;-87
2024/03/26 07:45:49;;;;;;;7.10;5.13;;;;;;;;;;6158211;28;20058;-86
2024/03/26 07:48:50;;;;;;;6.45;4.32;;;;;;;;;;6179229;28;20507;-85
2024/03/26 07:51:51;;;;;;;4.50;3.40;;;;;;;;;;6188372;28;20038;-86
2024/03/26 07:54:53;;;;;;;5.18;3.45;;;;;;;;;;6195503;28;20499;-88
2024/03/26 07:57:54;;;;;;;6.60;4.78;;;;;;;;;;6173123;28;20050;-87
2024/03/26 08:00:54;;;;;;;8.32;6.55;;;;;;;;;;6145899;28;20344;-86
2024/03/26 08:03:55;;;;;;;8.05;4.15;;;;;;;;;;6165105;28;20538;-86
2024/03/26 08:06:56;;;;;;;6.65;3.63;;;;;;;;;;6190178;28;20578;-86
2024/03/26 08:09:57;;;;;;;7.60;3.50;;;;;;;;;;6176878;28;20491;-87
2024/03/26 08:12:58;;;;;;;6.80;3.65;;;;;;;;;;6187574;28;20046;-85
2024/03/26 08:15:59;;;;;;;8.25;3.72;;;;;;;;;;6170701;28;20042;-85
2024/03/26 08:19:00;;;;;;;4.30;3.22;;;;;;;;;;6170327;28;20046;-85
2024/03/26 08:22:01;;;;;;;3.20;2.55;;;;;;;;;;6172477;28;20054;-86
2024/03/26 08:25:01;;;;;;;5.70;3.42;;;;;;;;;;6188223;28;20042;-86
2024/03/26 08:28:02;;;;;;;4.85;3.03;;;;;;;;;;6189648;28;20054;-85
2024/03/26 08:31:05;;;;;;;3.65;2.60;;;;;;;;;;6209056;28;20046;-86
2024/03/26 08:34:06;;;;;;;6.55;4.25;;;;;;;;;;6194636;28;20092;-85
2024/03/26 08:37:07;;;;;;;6.03;3.70;;;;;;;;;;6195003;28;20038;-86
2024/03/26 08:40:08;;;;;;;6.10;2.85;;;;;;;;;;6212090;28;20053;-85
2024/03/26 08:43:09;;;;;;;4.68;1.95;;;;;;;;;;6195798;28;20038;-86
2024/03/26 08:46:11;;;;;;;4.22;2.50;;;;;;;;;;6195184;28;20176;-86
2024/03/26 08:49:12;;;;;;;3.80;2.53;;;;;;;;;;6210847;28;20478;-85
2024/03/26 08:52:13;;;;;;;3.17;2.20;;;;;;;;;;6177345;28;20052;-85
2024/03/26 08:55:14;;;;;;;4.32;2.20;;;;;;;;;;6196224;28;20041;-85
2024/03/26 08:58:15;;;;;;;4.07;2.50;;;;;;;;;;6179029;28;20038;-86
2024/03/26 09:01:16;;;;;;;4.80;2.50;;;;;;;;;;6210858;28;20100;-85
2024/03/26 09:04:17;;;;;;;5.13;2.20;;;;;;;;;;6194082;28;20065;-86
2024/03/26 09:07:18;;;;;;;5.30;2.70;;;;;;;;;;6210997;28;20049;-85
2024/03/26 09:10:19;;;;;;;4.28;2.20;;;;;;;;;;6168364;28;20393;-85
2024/03/26 09:13:20;;;;;;;4.70;2.20;;;;;;;;;;6146378;28;20043;-85
2024/03/26 09:16:20;;;;;;;4.30;2.97;;;;;;;;;;6132497;28;20051;-85
2024/03/26 09:19:21;;;;;;;3.38;2.03;;;;;;;;;;6137693;28;20416;-86
2024/03/26 09:22:22;;;;;;;6.95;4.70;;;;;;;;;;6163414;28;20128;-86
2024/03/26 09:25:25;;;;;;;;;;;;;;;;;;6200093;28;20061;-86
2024/03/26 09:28:26;;;;;;;5.63;2.35;;;;;;;;;;6193169;28;19926;-87
2024/03/26 09:31:27;;;;;;;4.85;2.50;;;;;;;;;;6186915;28;20049;-87
2024/03/26 09:34:27;;;;;;;4.90;2.50;;;;;;;;;;6159256;28;20482;-87
2024/03/26 09:37:29;;;;;;;4.65;3.00;;;;;;;;;;6193747;28;20042;-89
2024/03/26 09:40:34;;;;;;;3.78;2.35;;;;;;;;;;6175872;28;20377;-89
2024/03/26 09:43:36;;;;;;;4.65;2.30;;;;;;;;;;6151978;28;20587;-88
2024/03/26 09:46:37;;;;;;;3.20;2.20;;;;;;;;;;6160667;28;20639;-87
2024/03/26 09:49:39;;;;;;;4.13;2.10;;;;;;;;;;6168334;28;20508;-89
2024/03/26 09:52:46;;;;;;;5.18;2.40;;;;;;;;;;6167558;28;20047;-86
2024/03/26 09:55:48;;;;;;;5.00;2.35;;;;;;;;;;6159946;28;20112;-87
2024/03/26 09:58:49;;;;;;;3.75;2.00;;;;;;;;;;6183477;28;20037;-86
2024/03/26 10:01:53;;;;;;;5.90;2.53;;;;;;;;;;6175781;28;20193;-85
2024/03/26 10:04:54;;;;;;;6.15;2.42;;;;;;;;;;6181630;28;20046;-85
2024/03/26 10:07:56;;;;;;;3.83;2.45;;;;;;;;;;6160695;28;20104;-87
2024/03/26 10:10:57;;;;;;;5.28;2.42;;;;;;;;;;6166259;28;20073;-85
2024/03/26 10:13:57;;;;;;;3.50;2.35;;;;;;;;;;6150505;28;20042;-85
2024/03/26 10:16:58;;;;;;;5.18;2.40;;;;;;;;;;6167986;28;20053;-86
2024/03/26 10:19:59;;;;;;;4.53;1.90;;;;;;;;;;6166727;28;20042;-84
2024/03/26 10:23:01;;;;;;;5.72;2.22;;;;;;;;;;6176574;28;20411;-85
2024/03/26 10:26:02;;;;;;;3.00;1.90;;;;;;;;;;6186740;28;20046;-86
2024/03/26 10:29:03;;;;;;;3.65;2.20;;;;;;;;;;6183344;28;20061;-86
2024/03/26 10:32:04;;;;;;;3.10;2.00;;;;;;;;;;6182324;28;20046;-86
2024/03/26 10:35:08;;;;;;;5.30;2.08;;;;;;;;;;6167594;28;20057;-87
2024/03/26 10:38:09;;;;;;;3.70;2.42;;;;;;;;;;6198900;28;20506;-86
2024/03/26 10:41:14;;;;;;;4.50;2.78;;;;;;;;;;6166697;28;20129;-84
2024/03/26 10:44:15;;;;;;;3.22;2.17;;;;;;;;;;6175256;28;20054;-84
2024/03/26 10:47:16;;;;;;;4.28;2.55;;;;;;;;;;6182946;28;20039;-85
2024/03/26 10:50:18;;;;;;;12.50;6.53;;;;;;;;;;6189687;28;20101;-86
2024/03/26 10:53:20;;;;;;;19.38;8.88;;;;;;;;;;6197505;28;20102;-87
2024/03/26 10:56:21;;;;;;;16.38;7.57;;;;;;;;;;6156791;28;20042;-87
2024/03/26 10:59:22;;;;;;;6.05;2.53;;;;;;;;;;6177940;28;20252;-87
2024/03/26 11:02:23;;;;;;;8.57;4.55;;;;;;;;;;6167253;28;20043;-87
2024/03/26 11:05:26;;;;;;;12.48;5.43;;;;;;;;;;6154330;28;20043;-85
2024/03/26 11:08:27;;;;;;;11.93;4.95;;;;;;;;;;6150942;28;20049;-87
2024/03/26 11:11:35;;;;;;;34.03;11.50;;;;;;;;;;6160626;28;20088;-86
2024/03/26 11:14:42;;;;;;;36.95;11.32;;;;;;;;;;6183547;28;20042;-87
2024/03/26 11:17:52;;;;;;;52.78;19.00;;;;;;;;;;6179615;28;20111;-86
2024/03/26 11:20:56;;;;;;;56.08;19.83;;;;;;;;;;6165318;28;20081;-86
2024/03/26 11:23:58;;;;;;;41.80;15.18;;;;;;;;;;6170105;28;20034;-86
2024/03/26 11:27:01;;;;;;;62.40;21.17;;;;;;;;;;6174155;28;20061;-86
2024/03/26 11:30:03;;;;;;;5.00;2.78;;;;;;;;;;6175256;28;20053;-85
2024/03/26 11:33:04;;;;;;;54.45;21.05;;;;;;;;;;6184665;28;20061;-85
2024/03/26 11:36:09;;;;;;;3.85;1.80;;;;;;;;;;6179556;28;20045;-85
2024/03/26 11:39:13;;;;;;;45.47;19.17;;;;;;;;;;6193679;28;20496;-87
2024/03/26 11:42:14;;;;;;;29.48;13.00;;;;;;;;;;6150520;28;20047;-86
2024/03/26 11:45:15;;;;;;;4.78;2.45;;;;;;;;;;6200237;28;20045;-86
2024/03/26 11:48:16;;;;;;;24.27;9.80;;;;;;;;;;6172623;28;20515;-86
2024/03/26 11:51:17;;;;;;;5.57;2.30;;;;;;;;;;6180450;28;20053;-86
2024/03/26 11:54:17;;;;;;;9.13;4.43;;;;;;;;;;6173711;28;20042;-86
2024/03/26 11:57:18;;;;;;;19.73;8.82;;;;;;;;;;6174637;28;20046;-86
2024/03/26 12:00:19;;;;;;;4.85;2.60;;;;;;;;;;6182135;28;20077;-86
2024/03/26 12:03:22;;;;;;;6.00;2.40;;;;;;;;;;6186750;28;20049;-85
2024/03/26 12:06:24;;;;;;;5.63;2.97;;;;;;;;;;6178046;28;20051;-85
2024/03/26 12:09:25;;;;;;;14.38;6.97;;;;;;;;;;6179288;28;20089;-86
2024/03/26 12:12:26;;;;;;;10.82;5.10;;;;;;;;;;6186943;28;20109;-86
2024/03/26 12:15:27;;;;;;;10.90;5.13;;;;;;;;;;6190198;28;20054;-85
2024/03/26 12:18:31;;;;;;;30.52;12.95;;;;;;;;;;6163686;28;20054;-85
2024/03/26 12:21:32;;;;;;;10.63;7.18;;;;;;;;;;6162818;28;20100;-85
2024/03/26 12:24:32;;;;;;;12.50;4.65;;;;;;;;;;6185337;28;20050;-86
2024/03/26 12:27:34;;;;;;;18.17;10.70;;;;;;;;;;6178171;28;20037;-87
2024/03/26 12:30:35;;;;;;;8.10;5.47;;;;;;;;;;6160909;28;20048;-87
2024/03/26 12:33:36;;;;;;;7.82;4.88;;;;;;;;;;6170306;28;20105;-87
2024/03/26 12:36:37;;;;;;;4.85;3.40;;;;;;;;;;6191591;28;20101;-87
2024/03/26 12:39:38;;;;;;;4.50;2.50;;;;;;;;;;6166145;28;20049;-88
2024/03/26 12:42:39;;;;;;;3.22;2.17;;;;;;;;;;6164805;28;20101;-86
2024/03/26 12:45:40;;;;;;;4.28;2.33;;;;;;;;;;6175399;28;20443;-88
2024/03/26 12:48:41;;;;;;;5.18;2.20;;;;;;;;;;6185153;28;20038;-87
2024/03/26 12:51:43;;;;;;;3.63;1.88;;;;;;;;;;6165795;28;20106;-87
2024/03/26 12:54:44;;;;;;;6.47;3.43;;;;;;;;;;6165968;28;20046;-88
2024/03/26 12:57:45;;;;;;;4.80;2.60;;;;;;;;;;6173528;28;20202;-87
2024/03/26 13:00:46;;;;;;;2.65;1.90;;;;;;;;;;6169599;28;20122;-87
2024/03/26 13:03:47;;;;;;;4.00;2.63;;;;;;;;;;6189335;28;20038;-87
2024/03/26 13:06:48;;;;;;;3.38;2.22;;;;;;;;;;6166649;28;20049;-86
2024/03/26 13:09:49;;;;;;;5.93;2.60;;;;;;;;;;6164451;28;20049;-85
2024/03/26 13:12:50;;;;;;;3.63;1.92;;;;;;;;;;6174704;28;20125;-86
2024/03/26 13:15:50;;;;;;;3.42;2.20;;;;;;;;;;6185554;28;20058;-85
2024/03/26 13:18:51;;;;;;;3.88;2.20;;;;;;;;;;6167815;28;20046;-87
2024/03/26 13:21:52;;;;;;;3.15;2.10;;;;;;;;;;6186207;28;20062;-85
2024/03/26 13:24:53;;;;;;;3.80;2.20;;;;;;;;;;6176763;28;20054;-86
2024/03/26 13:27:54;;;;;;;2.38;1.88;;;;;;;;;;6177812;28;20050;-84
2024/03/26 13:30:54;;;;;;;4.55;2.13;;;;;;;;;;6169950;28;20043;-85
2024/03/26 13:33:56;;;;;;;2.72;2.35;;;;;;;;;;6170493;28;20148;-85
2024/03/26 13:36:56;;;;;;;3.97;1.90;;;;;;;;;;6183602;28;20053;-85
2024/03/26 13:39:57;;;;;;;4.45;2.22;;;;;;;;;;6169657;28;20144;-86
2024/03/26 13:42:58;;;;;;;2.72;2.00;;;;;;;;;;6184027;28;20058;-86
2024/03/26 13:45:59;;;;;;;3.70;2.08;;;;;;;;;;6154251;28;20045;-86
2024/03/26 13:49:00;;;;;;;2.97;2.00;;;;;;;;;;6157914;28;20054;-86
2024/03/26 13:52:01;;;;;;;4.07;2.00;;;;;;;;;;6149030;28;20073;-87
2024/03/26 13:55:04;;;;;;;3.60;2.30;;;;;;;;;;6185444;28;20432;-87
2024/03/26 13:58:04;;;;;;;28.83;13.13;;;;;;;;;;6165513;28;20038;-89
2024/03/26 14:01:05;;;;;;;10.65;4.88;;;;;;;;;;6170220;28;20053;-88
2024/03/26 14:04:06;;;;;;;13.70;6.05;;;;;;;;;;6185762;28;20162;-87
2024/03/26 14:07:07;;;;;;;11.70;4.82;;;;;;;;;;6181054;28;20066;-88
2024/03/26 14:10:08;;;;;;;3.90;2.15;;;;;;;;;;6167004;28;20046;-87
2024/03/26 14:13:09;;;;;;;4.18;2.20;;;;;;;;;;6190606;28;20049;-89
2024/03/26 14:16:10;;;;;;;2.40;2.17;;;;;;;;;;6162085;28;20043;-87
2024/03/26 14:19:10;;;;;;;3.05;1.85;;;;;;;;;;6178914;28;20404;-88
2024/03/26 14:22:12;;;;;;;8.02;4.28;;;;;;;;;;6157497;28;20081;-87
2024/03/26 14:25:15;;;;;;;8.75;4.25;;;;;;;;;;6149098;28;20050;-89
2024/03/26 14:28:16;;;;;;;;;;;;;;;;;;6183514;28;20061;-86
2024/03/26 14:31:23;;;;;;;7.57;3.63;;;;;;;;;;6181311;28;19921;-88
2024/03/26 14:34:23;;;;;;;8.77;5.03;;;;;;;;;;6150820;28;20049;-88
2024/03/26 14:37:24;;;;;;;2.55;1.90;;;;;;;;;;6170170;28;20050;-88
2024/03/26 14:40:25;;;;;;;2.40;1.70;;;;;;;;;;6149829;28;20066;-86
2024/03/26 14:43:26;;;;;;;5.20;2.95;;;;;;;;;;6166754;28;20054;-87
2024/03/26 14:46:26;;;;;;;3.05;1.85;;;;;;;;;;6177419;28;20042;-86
2024/03/26 14:49:27;;;;;;;3.17;1.85;;;;;;;;;;6148949;28;20047;-88
2024/03/26 14:52:28;;;;;;;3.05;1.60;;;;;;;;;;6150874;28;20057;-87
2024/03/26 14:55:31;;;;;;;10.27;4.60;;;;;;;;;;6164951;28;20042;-88
2024/03/26 14:58:31;;;;;;;17.23;6.03;;;;;;;;;;6158102;28;20380;-88
2024/03/26 15:01:32;;;;;;;9.95;3.60;;;;;;;;;;6214352;28;20047;-88
2024/03/26 15:04:33;;;;;;;28.52;9.65;;;;;;;;;;6191534;28;20065;-88
2024/03/26 15:07:34;;;;;;;40.22;9.95;;;;;;;;;;6177856;28;20173;-86
2024/03/26 15:10:36;;;;;;;9.57;3.90;;;;;;;;;;6155584;28;20053;-88
2024/03/26 15:13:39;;;;;;;13.10;6.07;;;;;;;;;;6169351;28;20059;-89
2024/03/26 15:16:41;;;;;;;;;;;;;;;;;;6173901;28;20042;-89
2024/03/26 15:19:42;;;;;;;3.90;1.88;;;;;;;;;;6178148;28;19929;-88
2024/03/26 15:22:43;;;;;;;7.85;3.67;;;;;;;;;;6186830;28;20050;-87
2024/03/26 15:25:44;;;;;;;6.38;3.08;;;;;;;;;;6175169;28;20125;-88
2024/03/26 15:32:04;;;;;;;6.65;2.90;;;;;;;;;;6152836;28;20057;-89
2024/03/26 15:35:07;;;;;;;3.95;1.65;;;;;;;;;;6153882;28;20186;-88
2024/03/26 15:38:08;;;;;;;6.53;3.35;;;;;;;;;;6200744;28;20046;-86
2024/03/26 15:41:09;;;;;;;3.80;1.65;;;;;;;;;;6157860;28;20491;-88
2024/03/26 15:44:10;;;;;;;3.17;1.83;;;;;;;;;;6157979;28;20039;-88
2024/03/26 15:47:11;;;;;;;4.82;2.47;;;;;;;;;;6170012;28;20054;-88
2024/03/26 15:50:12;;;;;;;3.40;1.80;;;;;;;;;;6174404;28;20049;-89
2024/03/26 15:53:16;;;;;;;3.30;1.77;;;;;;;;;;6153127;28;20053;-89
2024/03/26 15:56:17;;;;;;;3.15;1.60;;;;;;;;;;6147956;28;20410;-90
2024/03/26 15:59:20;;;;;;;2.50;1.23;;;;;;;;;;6166710;28;20052;-89
2024/03/26 16:02:21;;;;;;;7.72;3.50;;;;;;;;;;6167311;28;20042;-90
2024/03/26 16:05:25;;;;;;;4.03;2.17;;;;;;;;;;6167943;28;20049;-89
2024/03/26 16:08:25;;;;;;;2.00;1.48;;;;;;;;;;6170753;28;20046;-90
2024/03/26 16:11:27;;;;;;;3.17;1.70;;;;;;;;;;6152211;28;20050;-89
2024/03/26 16:14:28;;;;;;;4.28;2.15;;;;;;;;;;6171469;28;20061;-89
2024/03/26 16:17:29;;;;;;;3.60;2.15;;;;;;;;;;6135279;28;20046;-89
2024/03/26 16:20:30;;;;;;;2.83;1.70;;;;;;;;;;6152284;28;20049;-90
2024/03/26 16:23:31;;;;;;;2.28;1.52;;;;;;;;;;6137342;28;20034;-89
2024/03/26 16:26:32;;;;;;;2.05;1.23;;;;;;;;;;6165432;28;20120;-89
2024/03/26 16:29:35;;;;;;;2.90;1.42;;;;;;;;;;6158181;28;20136;-89
2024/03/26 16:32:36;;;;;;;;;;;;;;;;;;6169942;28;20045;-88
2024/03/26 16:35:37;;;;;;;1.75;1.35;;;;;;;;;;6162184;28;19922;-89
2024/03/26 16:38:38;;;;;;;1.98;1.33;;;;;;;;;;6165444;28;20042;-88
2024/03/26 16:41:43;;;;;;;3.60;1.58;;;;;;;;;;6159006;28;20412;-88
2024/03/26 16:44:45;;;;;;;1.38;1.23;;;;;;;;;;6162471;28;20046;-89
2024/03/26 16:47:46;;;;;;;1.75;1.00;;;;;;;;;;6163966;28;20149;-88
2024/03/26 16:50:47;;;;;;;1.48;1.20;;;;;;;;;;6173915;28;20065;-89
2024/03/26 16:53:48;;;;;;;1.70;1.20;;;;;;;;;;6146074;28;20140;-89
2024/03/26 16:56:49;;;;;;;4.18;1.58;;;;;;;;;;6182154;28;20121;-89
2024/03/26 16:59:51;;;;;;;2.15;1.65;;;;;;;;;;6174404;28;20137;-89
2024/03/26 17:02:52;;;;;;;2.45;1.50;;;;;;;;;;6149367;28;20058;-89
2024/03/26 17:05:53;;;;;;;3.63;1.60;;;;;;;;;;6168653;28;20054;-89
2024/03/26 17:08:54;;;;;;;1.73;1.30;;;;;;;;;;6148745;28;20581;-89
2024/03/26 17:11:55;;;;;;;2.00;1.40;;;;;;;;;;6179355;28;20049;-89
2024/03/26 17:14:56;;;;;;;3.20;1.80;;;;;;;;;;6189638;28;20065;-89
2024/03/26 17:17:59;;;;;;;5.35;1.88;;;;;;;;;;6165254;28;20046;-89
2024/03/26 17:20:59;;;;;;;2.78;1.38;;;;;;;;;;6148575;28;20455;-85
2024/03/26 17:24:00;;;;;;;12.48;2.47;;;;;;;;;;6151364;28;20114;-87
2024/03/26 17:27:01;;;;;;;3.22;1.50;;;;;;;;;;6173563;28;20050;-88
2024/03/26 17:30:03;;;;;;;6.68;2.42;;;;;;;;;;6161220;28;20125;-87
2024/03/26 17:33:05;;;;;;;8.35;4.07;;;;;;;;;;6180950;28;20043;-86
2024/03/26 17:36:06;;;;;;;7.90;5.00;;;;;;;;;;6170066;28;20294;-88
2024/03/26 17:39:09;;;;;;;5.00;3.00;;;;;;;;;;6168834;28;20451;-87
2024/03/26 17:42:09;;;;;;;10.53;5.80;;;;;;;;;;6147185;28;20046;-86
2024/03/26 17:45:10;;;;;;;20.90;11.07;;;;;;;;;;6163012;28;20528;-87
2024/03/26 17:48:12;;;;;;;25.17;14.55;;;;;;;;;;6186019;28;20488;-85
2024/03/26 17:51:13;;;;;;;7.43;4.28;;;;;;;;;;6164451;28;20050;-87
2024/03/26 17:54:14;;;;;;;4.60;2.95;;;;;;;;;;6161537;28;20120;-87
2024/03/26 17:57:15;;;;;;;6.40;3.33;;;;;;;;;;6168268;28;20042;-86
2024/03/26 18:00:16;;;;;;;7.38;4.30;;;;;;;;;;6158415;28;20504;-85
2024/03/26 18:03:17;;;;;;;5.72;3.30;;;;;;;;;;6152188;28;20052;-85
2024/03/26 18:06:19;;;;;;;7.80;5.55;;;;;;;;;;6165205;28;20050;-85
2024/03/26 18:09:20;;;;;;;21.60;9.73;;;;;;;;;;6147666;28;20038;-85